sensor_id;sensor_type;location;lat;lon;timestamp;temperature;humidity
20598;DHT22;10457;48.770;11.446;2023-02-28T00:05:20;-1.00;65.20
20598;DHT22;10457;48.770;11.446;2023-02-28T00:10:44;-1.00;65.40
20598;DHT22;10457;48.770;11.446;2023-02-28T00:16:08;-1.00;65.00
20598;DHT22;10457;48.770;11.446;2023-02-28T00:21:31;-1.10;65.20
20598;DHT22;10457;48.770;11.446;2023-02-28T00:26:54;-1.10;65.70
20598;DHT22;10457;48.770;11.446;2023-02-28T00:32:15;-1.00;65.50
20598;DHT22;10457;48.770;11.446;2023-02-28T00:37:38;-1.10;65.10
20598;DHT22;10457;48.770;11.446;2023-02-28T00:43:01;-1.10;65.50
20598;DHT22;10457;48.770;11.446;2023-02-28T00:48:23;-1.10;65.40
20598;DHT22;10457;48.770;11.446;2023-02-28T00:53:45;-1.10;65.10
20598;DHT22;10457;48.770;11.446;2023-02-28T00:59:08;-1.10;65.30
20598;DHT22;10457;48.770;11.446;2023-02-28T01:04:32;-1.10;65.30
20598;DHT22;10457;48.770;11.446;2023-02-28T01:09:55;-1.20;65.10
20598;DHT22;10457;48.770;11.446;2023-02-28T01:15:20;-1.20;65.50
20598;DHT22;10457;48.770;11.446;2023-02-28T01:20:41;-1.40;65.30
20598;DHT22;10457;48.770;11.446;2023-02-28T01:26:04;-1.30;65.80
20598;DHT22;10457;48.770;11.446;2023-02-28T01:31:28;-1.40;65.60
20598;DHT22;10457;48.770;11.446;2023-02-28T01:36:49;-1.50;66.00
20598;DHT22;10457;48.770;11.446;2023-02-28T01:42:11;-1.50;66.30
20598;DHT22;10457;48.770;11.446;2023-02-28T01:47:36;-1.40;66.50
20598;DHT22;10457;48.770;11.446;2023-02-28T01:53:02;-1.50;67.00
20598;DHT22;10457;48.770;11.446;2023-02-28T01:58:26;-1.50;67.50
20598;DHT22;10457;48.770;11.446;2023-02-28T02:03:50;-1.60;67.30
20598;DHT22;10457;48.770;11.446;2023-02-28T02:09:15;-1.60;67.80
20598;DHT22;10457;48.770;11.446;2023-02-28T02:14:47;-1.60;67.60
20598;DHT22;10457;48.770;11.446;2023-02-28T02:20:33;-1.70;68.10
20598;DHT22;10457;48.770;11.446;2023-02-28T02:26:23;-1.70;68.50
20598;DHT22;10457;48.770;11.446;2023-02-28T02:32:13;-1.70;68.70
20598;DHT22;10457;48.770;11.446;2023-02-28T02:37:49;-1.70;69.10
20598;DHT22;10457;48.770;11.446;2023-02-28T02:43:17;-1.80;69.20
20598;DHT22;10457;48.770;11.446;2023-02-28T02:48:42;-1.80;69.60
20598;DHT22;10457;48.770;11.446;2023-02-28T02:54:12;-1.80;69.80
20598;DHT22;10457;48.770;11.446;2023-02-28T02:59:38;-1.80;70.00
20598;DHT22;10457;48.770;11.446;2023-02-28T03:05:05;-1.90;70.50
20598;DHT22;10457;48.770;11.446;2023-02-28T03:10:38;-1.90;70.60
20598;DHT22;10457;48.770;11.446;2023-02-28T03:16:32;-1.90;70.80
20598;DHT22;10457;48.770;11.446;2023-02-28T03:22:09;-1.90;70.80
20598;DHT22;10457;48.770;11.446;2023-02-28T03:27:39;-1.90;71.20
20598;DHT22;10457;48.770;11.446;2023-02-28T03:33:06;-2.00;71.50
20598;DHT22;10457;48.770;11.446;2023-02-28T03:38:34;-1.90;71.20
20598;DHT22;10457;48.770;11.446;2023-02-28T03:44:04;-2.00;71.40
20598;DHT22;10457;48.770;11.446;2023-02-28T03:49:31;-2.10;71.90
20598;DHT22;10457;48.770;11.446;2023-02-28T03:54:58;-2.00;71.90
20598;DHT22;10457;48.770;11.446;2023-02-28T04:00:30;-2.10;72.10
20598;DHT22;10457;48.770;11.446;2023-02-28T04:05:54;-2.10;72.80
20598;DHT22;10457;48.770;11.446;2023-02-28T04:11:21;-2.10;73.60
20598;DHT22;10457;48.770;11.446;2023-02-28T04:16:45;-2.20;73.00
20598;DHT22;10457;48.770;11.446;2023-02-28T04:22:08;-2.20;73.50
20598;DHT22;10457;48.770;11.446;2023-02-28T04:27:30;-2.20;74.10
20598;DHT22;10457;48.770;11.446;2023-02-28T04:32:52;-2.20;74.20
20598;DHT22;10457;48.770;11.446;2023-02-28T04:38:14;-2.30;74.80
20598;DHT22;10457;48.770;11.446;2023-02-28T04:43:35;-2.20;74.50
20598;DHT22;10457;48.770;11.446;2023-02-28T04:48:58;-2.20;75.00
20598;DHT22;10457;48.770;11.446;2023-02-28T04:54:20;-2.30;75.30
20598;DHT22;10457;48.770;11.446;2023-02-28T04:59:41;-2.30;75.30
20598;DHT22;10457;48.770;11.446;2023-02-28T05:05:04;-2.40;75.50
20598;DHT22;10457;48.770;11.446;2023-02-28T05:10:26;-2.40;75.70
20598;DHT22;10457;48.770;11.446;2023-02-28T05:15:48;-2.40;76.10
20598;DHT22;10457;48.770;11.446;2023-02-28T05:21:25;-2.30;75.90
20598;DHT22;10457;48.770;11.446;2023-02-28T05:26:49;-2.40;77.00
20598;DHT22;10457;48.770;11.446;2023-02-28T05:32:13;-2.40;76.50
20598;DHT22;10457;48.770;11.446;2023-02-28T05:37:37;-2.40;77.00
20598;DHT22;10457;48.770;11.446;2023-02-28T05:42:58;-2.40;76.90
20598;DHT22;10457;48.770;11.446;2023-02-28T05:48:19;-2.40;76.70
20598;DHT22;10457;48.770;11.446;2023-02-28T05:53:42;-2.40;76.80
20598;DHT22;10457;48.770;11.446;2023-02-28T05:59:04;-2.50;77.30
20598;DHT22;10457;48.770;11.446;2023-02-28T06:04:25;-2.40;77.30
20598;DHT22;10457;48.770;11.446;2023-02-28T06:09:48;-2.30;76.90
20598;DHT22;10457;48.770;11.446;2023-02-28T06:15:12;-2.40;77.30
20598;DHT22;10457;48.770;11.446;2023-02-28T06:20:34;-2.30;76.90
20598;DHT22;10457;48.770;11.446;2023-02-28T06:25:57;-2.20;76.60
20598;DHT22;10457;48.770;11.446;2023-02-28T06:31:19;-2.20;76.20
20598;DHT22;10457;48.770;11.446;2023-02-28T06:36:42;-2.10;76.00
20598;DHT22;10457;48.770;11.446;2023-02-28T06:42:05;-1.90;75.50
20598;DHT22;10457;48.770;11.446;2023-02-28T06:47:27;-1.90;74.80
20598;DHT22;10457;48.770;11.446;2023-02-28T06:52:51;-1.80;75.50
20598;DHT22;10457;48.770;11.446;2023-02-28T06:58:15;-1.60;73.60
20598;DHT22;10457;48.770;11.446;2023-02-28T07:03:38;-1.40;73.00
20598;DHT22;10457;48.770;11.446;2023-02-28T07:09:00;-1.30;72.30
20598;DHT22;10457;48.770;11.446;2023-02-28T07:14:23;-1.10;72.10
20598;DHT22;10457;48.770;11.446;2023-02-28T07:19:44;-1.00;70.90
20598;DHT22;10457;48.770;11.446;2023-02-28T07:25:07;-0.80;69.50
20598;DHT22;10457;48.770;11.446;2023-02-28T07:30:30;-0.60;67.90
20598;DHT22;10457;48.770;11.446;2023-02-28T07:35:51;-0.40;67.10
20598;DHT22;10457;48.770;11.446;2023-02-28T07:41:13;-0.10;65.10
20598;DHT22;10457;48.770;11.446;2023-02-28T07:46:36;0.60;62.40
20598;DHT22;10457;48.770;11.446;2023-02-28T07:51:58;2.60;56.80
20598;DHT22;10457;48.770;11.446;2023-02-28T07:57:20;4.10;51.30
20598;DHT22;10457;48.770;11.446;2023-02-28T08:02:43;4.90;48.30
20598;DHT22;10457;48.770;11.446;2023-02-28T08:08:04;6.00;46.40
20598;DHT22;10457;48.770;11.446;2023-02-28T08:13:26;6.70;43.90
20598;DHT22;10457;48.770;11.446;2023-02-28T08:18:49;6.40;43.60
20598;DHT22;10457;48.770;11.446;2023-02-28T08:24:11;6.60;43.30
20598;DHT22;10457;48.770;11.446;2023-02-28T08:29:32;7.40;41.60
20598;DHT22;10457;48.770;11.446;2023-02-28T08:34:55;7.60;40.60
20598;DHT22;10457;48.770;11.446;2023-02-28T08:40:17;8.30;39.10
20598;DHT22;10457;48.770;11.446;2023-02-28T08:45:38;8.50;37.60
20598;DHT22;10457;48.770;11.446;2023-02-28T08:51:03;9.00;38.10
20598;DHT22;10457;48.770;11.446;2023-02-28T08:56:26;9.30;36.40
20598;DHT22;10457;48.770;11.446;2023-02-28T09:01:48;9.10;35.40
20598;DHT22;10457;48.770;11.446;2023-02-28T09:07:11;9.50;35.50
20598;DHT22;10457;48.770;11.446;2023-02-28T09:12:34;9.50;34.90
20598;DHT22;10457;48.770;11.446;2023-02-28T09:17:55;9.50;34.30
20598;DHT22;10457;48.770;11.446;2023-02-28T09:23:19;9.00;34.60
20598;DHT22;10457;48.770;11.446;2023-02-28T09:28:40;9.30;35.00
20598;DHT22;10457;48.770;11.446;2023-02-28T09:34:03;9.20;35.40
20598;DHT22;10457;48.770;11.446;2023-02-28T09:39:26;8.70;36.90
20598;DHT22;10457;48.770;11.446;2023-02-28T09:44:49;9.30;35.40
20598;DHT22;10457;48.770;11.446;2023-02-28T09:50:23;9.30;35.00
20598;DHT22;10457;48.770;11.446;2023-02-28T09:55:58;9.10;34.10
20598;DHT22;10457;48.770;11.446;2023-02-28T10:01:25;10.20;34.30
20598;DHT22;10457;48.770;11.446;2023-02-28T10:06:51;9.70;33.00
20598;DHT22;10457;48.770;11.446;2023-02-28T10:12:16;9.40;33.90
20598;DHT22;10457;48.770;11.446;2023-02-28T10:17:40;8.90;34.60
20598;DHT22;10457;48.770;11.446;2023-02-28T10:23:08;10.60;33.80
20598;DHT22;10457;48.770;11.446;2023-02-28T10:28:33;10.80;30.90
20598;DHT22;10457;48.770;11.446;2023-02-28T10:33:55;10.00;34.30
20598;DHT22;10457;48.770;11.446;2023-02-28T10:39:37;11.60;32.00
20598;DHT22;10457;48.770;11.446;2023-02-28T10:45:12;11.90;30.50
20598;DHT22;10457;48.770;11.446;2023-02-28T10:50:43;11.50;29.60
20598;DHT22;10457;48.770;11.446;2023-02-28T10:56:14;10.70;32.10
20598;DHT22;10457;48.770;11.446;2023-02-28T11:01:40;11.60;30.60
20598;DHT22;10457;48.770;11.446;2023-02-28T11:07:05;13.20;28.80
20598;DHT22;10457;48.770;11.446;2023-02-28T11:12:31;13.10;29.30
20598;DHT22;10457;48.770;11.446;2023-02-28T11:18:01;13.00;28.90
20598;DHT22;10457;48.770;11.446;2023-02-28T11:23:30;14.50;27.60
20598;DHT22;10457;48.770;11.446;2023-02-28T11:29:08;15.00;27.20
20598;DHT22;10457;48.770;11.446;2023-02-28T11:34:35;15.50;24.70
20598;DHT22;10457;48.770;11.446;2023-02-28T11:39:57;16.40;25.20
20598;DHT22;10457;48.770;11.446;2023-02-28T11:45:27;17.00;23.30
20598;DHT22;10457;48.770;11.446;2023-02-28T11:51:13;15.70;25.40
20598;DHT22;10457;48.770;11.446;2023-02-28T11:56:39;17.00;23.40
20598;DHT22;10457;48.770;11.446;2023-02-28T12:02:23;16.00;24.30
20598;DHT22;10457;48.770;11.446;2023-02-28T12:07:55;16.50;25.60
20598;DHT22;10457;48.770;11.446;2023-02-28T12:13:25;16.20;24.20
20598;DHT22;10457;48.770;11.446;2023-02-28T12:19:01;17.10;24.00
20598;DHT22;10457;48.770;11.446;2023-02-28T12:24:54;17.20;23.40
20598;DHT22;10457;48.770;11.446;2023-02-28T12:30:34;17.10;23.50
20598;DHT22;10457;48.770;11.446;2023-02-28T12:36:00;17.40;23.60
20598;DHT22;10457;48.770;11.446;2023-02-28T12:41:38;19.10;21.90
20598;DHT22;10457;48.770;11.446;2023-02-28T12:47:05;18.90;22.30
20598;DHT22;10457;48.770;11.446;2023-02-28T12:52:39;19.50;20.20
20598;DHT22;10457;48.770;11.446;2023-02-28T12:58:13;17.50;20.20
20598;DHT22;10457;48.770;11.446;2023-02-28T13:03:51;16.30;23.90
20598;DHT22;10457;48.770;11.446;2023-02-28T13:09:21;16.10;25.50
20598;DHT22;10457;48.770;11.446;2023-02-28T13:14:44;16.60;23.60
20598;DHT22;10457;48.770;11.446;2023-02-28T13:20:15;17.20;23.40
20598;DHT22;10457;48.770;11.446;2023-02-28T13:25:53;16.80;25.50
20598;DHT22;10457;48.770;11.446;2023-02-28T13:31:16;16.10;25.00
20598;DHT22;10457;48.770;11.446;2023-02-28T13:36:38;15.30;24.30
20598;DHT22;10457;48.770;11.446;2023-02-28T13:42:23;14.50;27.50
20598;DHT22;10457;48.770;11.446;2023-02-28T13:48:00;14.80;27.40
20598;DHT22;10457;48.770;11.446;2023-02-28T13:53:53;14.80;27.20
20598;DHT22;10457;48.770;11.446;2023-02-28T13:59:25;15.10;26.40
20598;DHT22;10457;48.770;11.446;2023-02-28T14:05:01;14.40;28.00
20598;DHT22;10457;48.770;11.446;2023-02-28T14:10:28;13.40;29.40
20598;DHT22;10457;48.770;11.446;2023-02-28T14:15:56;13.00;29.70
20598;DHT22;10457;48.770;11.446;2023-02-28T14:21:23;11.20;32.10
20598;DHT22;10457;48.770;11.446;2023-02-28T14:27:32;9.90;34.70
20598;DHT22;10457;48.770;11.446;2023-02-28T14:33:11;9.20;36.30
20598;DHT22;10457;48.770;11.446;2023-02-28T14:38:46;8.80;37.80
20598;DHT22;10457;48.770;11.446;2023-02-28T14:44:16;8.80;38.00
20598;DHT22;10457;48.770;11.446;2023-02-28T14:49:45;8.20;38.60
20598;DHT22;10457;48.770;11.446;2023-02-28T14:55:15;7.70;39.40
20598;DHT22;10457;48.770;11.446;2023-02-28T15:00:47;7.80;39.90
20598;DHT22;10457;48.770;11.446;2023-02-28T15:06:14;7.70;40.60
20598;DHT22;10457;48.770;11.446;2023-02-28T15:11:39;7.60;41.20
20598;DHT22;10457;48.770;11.446;2023-02-28T15:17:07;7.20;40.60
20598;DHT22;10457;48.770;11.446;2023-02-28T15:22:35;6.90;41.70
20598;DHT22;10457;48.770;11.446;2023-02-28T15:27:59;6.60;43.00
20598;DHT22;10457;48.770;11.446;2023-02-28T15:33:22;6.40;43.60
20598;DHT22;10457;48.770;11.446;2023-02-28T15:38:44;6.30;44.40
20598;DHT22;10457;48.770;11.446;2023-02-28T15:44:17;6.00;44.50
20598;DHT22;10457;48.770;11.446;2023-02-28T15:49:49;5.70;45.90
20598;DHT22;10457;48.770;11.446;2023-02-28T15:55:18;5.60;46.30
20598;DHT22;10457;48.770;11.446;2023-02-28T16:00:44;5.30;46.90
20598;DHT22;10457;48.770;11.446;2023-02-28T16:06:55;5.10;47.40
20598;DHT22;10457;48.770;11.446;2023-02-28T16:12:26;4.90;48.20
20598;DHT22;10457;48.770;11.446;2023-02-28T16:17:49;4.90;48.20
20598;DHT22;10457;48.770;11.446;2023-02-28T16:23:10;4.70;48.20
20598;DHT22;10457;48.770;11.446;2023-02-28T16:28:36;4.50;49.50
20598;DHT22;10457;48.770;11.446;2023-02-28T16:33:58;4.30;49.90
20598;DHT22;10457;48.770;11.446;2023-02-28T16:39:20;4.20;50.20
20598;DHT22;10457;48.770;11.446;2023-02-28T16:44:43;4.00;51.20
20598;DHT22;10457;48.770;11.446;2023-02-28T16:50:08;3.90;51.60
20598;DHT22;10457;48.770;11.446;2023-02-28T16:55:37;3.70;52.10
20598;DHT22;10457;48.770;11.446;2023-02-28T17:01:00;3.50;52.70
20598;DHT22;10457;48.770;11.446;2023-02-28T17:06:24;3.50;53.20
20598;DHT22;10457;48.770;11.446;2023-02-28T17:11:47;3.30;53.50
20598;DHT22;10457;48.770;11.446;2023-02-28T17:17:16;3.30;54.00
20598;DHT22;10457;48.770;11.446;2023-02-28T17:22:38;3.20;53.70
20598;DHT22;10457;48.770;11.446;2023-02-28T17:28:00;3.30;53.60
20598;DHT22;10457;48.770;11.446;2023-02-28T17:33:23;3.40;53.40
20598;DHT22;10457;48.770;11.446;2023-02-28T17:38:45;3.40;53.80
20598;DHT22;10457;48.770;11.446;2023-02-28T17:44:07;3.40;53.50
20598;DHT22;10457;48.770;11.446;2023-02-28T17:49:30;3.30;54.00
20598;DHT22;10457;48.770;11.446;2023-02-28T17:54:51;3.30;54.40
20598;DHT22;10457;48.770;11.446;2023-02-28T18:00:16;3.30;54.40
20598;DHT22;10457;48.770;11.446;2023-02-28T18:05:39;3.20;54.60
20598;DHT22;10457;48.770;11.446;2023-02-28T18:11:01;3.30;55.50
20598;DHT22;10457;48.770;11.446;2023-02-28T18:16:23;3.20;55.40
20598;DHT22;10457;48.770;11.446;2023-02-28T18:21:48;3.20;55.20
20598;DHT22;10457;48.770;11.446;2023-02-28T18:27:10;3.00;55.50
20598;DHT22;10457;48.770;11.446;2023-02-28T18:32:32;2.90;55.90
20598;DHT22;10457;48.770;11.446;2023-02-28T18:37:55;2.80;56.50
20598;DHT22;10457;48.770;11.446;2023-02-28T18:43:16;2.70;56.80
20598;DHT22;10457;48.770;11.446;2023-02-28T18:48:38;2.70;56.90
20598;DHT22;10457;48.770;11.446;2023-02-28T18:54:00;2.70;56.90
20598;DHT22;10457;48.770;11.446;2023-02-28T18:59:22;2.70;57.30
20598;DHT22;10457;48.770;11.446;2023-02-28T19:04:44;2.60;57.70
20598;DHT22;10457;48.770;11.446;2023-02-28T19:10:08;2.60;57.90
20598;DHT22;10457;48.770;11.446;2023-02-28T19:15:31;2.60;58.00
20598;DHT22;10457;48.770;11.446;2023-02-28T19:20:52;2.50;58.30
20598;DHT22;10457;48.770;11.446;2023-02-28T19:26:17;2.50;58.70
20598;DHT22;10457;48.770;11.446;2023-02-28T19:31:39;2.40;58.50
20598;DHT22;10457;48.770;11.446;2023-02-28T19:37:00;2.30;59.30
20598;DHT22;10457;48.770;11.446;2023-02-28T19:42:24;2.30;59.80
20598;DHT22;10457;48.770;11.446;2023-02-28T19:47:48;2.20;60.10
20598;DHT22;10457;48.770;11.446;2023-02-28T19:53:10;2.20;59.90
20598;DHT22;10457;48.770;11.446;2023-02-28T19:58:33;2.20;60.10
20598;DHT22;10457;48.770;11.446;2023-02-28T20:03:55;2.20;60.60
20598;DHT22;10457;48.770;11.446;2023-02-28T20:09:17;2.20;61.20
20598;DHT22;10457;48.770;11.446;2023-02-28T20:14:40;2.20;60.90
20598;DHT22;10457;48.770;11.446;2023-02-28T20:20:02;2.20;60.70
20598;DHT22;10457;48.770;11.446;2023-02-28T20:25:24;2.20;61.20
20598;DHT22;10457;48.770;11.446;2023-02-28T20:30:48;2.10;61.60
20598;DHT22;10457;48.770;11.446;2023-02-28T20:36:09;2.10;62.30
20598;DHT22;10457;48.770;11.446;2023-02-28T20:41:31;1.90;62.50
20598;DHT22;10457;48.770;11.446;2023-02-28T20:46:54;1.80;63.20
20598;DHT22;10457;48.770;11.446;2023-02-28T20:52:15;1.70;63.70
20598;DHT22;10457;48.770;11.446;2023-02-28T20:57:37;1.70;64.10
20598;DHT22;10457;48.770;11.446;2023-02-28T21:03:00;1.60;64.30
20598;DHT22;10457;48.770;11.446;2023-02-28T21:08:21;1.60;64.30
20598;DHT22;10457;48.770;11.446;2023-02-28T21:13:44;1.60;64.50
20598;DHT22;10457;48.770;11.446;2023-02-28T21:19:07;1.50;64.40
20598;DHT22;10457;48.770;11.446;2023-02-28T21:24:29;1.60;65.20
20598;DHT22;10457;48.770;11.446;2023-02-28T21:29:51;1.60;65.30
20598;DHT22;10457;48.770;11.446;2023-02-28T21:35:14;1.50;64.80
20598;DHT22;10457;48.770;11.446;2023-02-28T21:40:35;1.50;64.60
20598;DHT22;10457;48.770;11.446;2023-02-28T21:45:59;1.50;64.90
20598;DHT22;10457;48.770;11.446;2023-02-28T21:51:25;1.50;64.70
20598;DHT22;10457;48.770;11.446;2023-02-28T21:56:49;1.50;64.80
20598;DHT22;10457;48.770;11.446;2023-02-28T22:02:11;1.50;64.60
20598;DHT22;10457;48.770;11.446;2023-02-28T22:07:34;1.50;64.70
20598;DHT22;10457;48.770;11.446;2023-02-28T22:12:55;1.40;64.70
20598;DHT22;10457;48.770;11.446;2023-02-28T22:18:20;1.30;65.20
20598;DHT22;10457;48.770;11.446;2023-02-28T22:23:44;1.30;65.20
20598;DHT22;10457;48.770;11.446;2023-02-28T22:29:06;1.30;65.50
20598;DHT22;10457;48.770;11.446;2023-02-28T22:34:27;1.30;65.50
20598;DHT22;10457;48.770;11.446;2023-02-28T22:39:50;1.30;65.90
20598;DHT22;10457;48.770;11.446;2023-02-28T22:45:12;1.30;65.90
20598;DHT22;10457;48.770;11.446;2023-02-28T22:50:34;1.20;65.80
20598;DHT22;10457;48.770;11.446;2023-02-28T22:55:56;1.20;66.00
20598;DHT22;10457;48.770;11.446;2023-02-28T23:01:20;1.20;65.90
20598;DHT22;10457;48.770;11.446;2023-02-28T23:06:43;1.30;66.80
20598;DHT22;10457;48.770;11.446;2023-02-28T23:12:06;1.30;66.80
20598;DHT22;10457;48.770;11.446;2023-02-28T23:17:30;1.20;66.70
20598;DHT22;10457;48.770;11.446;2023-02-28T23:22:51;1.20;66.80
20598;DHT22;10457;48.770;11.446;2023-02-28T23:28:14;1.30;66.20
20598;DHT22;10457;48.770;11.446;2023-02-28T23:33:36;1.40;66.20
20598;DHT22;10457;48.770;11.446;2023-02-28T23:38:57;1.40;65.90
20598;DHT22;10457;48.770;11.446;2023-02-28T23:44:20;1.40;66.70
20598;DHT22;10457;48.770;11.446;2023-02-28T23:49:41;1.40;65.90
20598;DHT22;10457;48.770;11.446;2023-02-28T23:55:03;1.40;65.70
